sensor_id;sensor_type;location;lat;lon;timestamp;temperature;humidity
16441;DHT22;8330;-33.858;151.184;2022-12-15T00:02:19;22.00;72.20
16441;DHT22;8330;-33.858;151.184;2022-12-15T00:05:05;21.90;70.30
16441;DHT22;8330;-33.858;151.184;2022-12-15T00:07:54;21.80;68.70
16441;DHT22;8330;-33.858;151.184;2022-12-15T00:10:41;21.60;68.10
16441;DHT22;8330;-33.858;151.184;2022-12-15T00:13:27;21.60;70.20
16441;DHT22;8330;-33.858;151.184;2022-12-15T00:16:14;22.00;69.60
16441;DHT22;8330;-33.858;151.184;2022-12-15T00:19:00;22.30;68.10
16441;DHT22;8330;-33.858;151.184;2022-12-15T00:21:47;22.30;67.60
16441;DHT22;8330;-33.858;151.184;2022-12-15T00:24:35;22.60;67.00
16441;DHT22;8330;-33.858;151.184;2022-12-15T00:27:22;22.60;65.20
16441;DHT22;8330;-33.858;151.184;2022-12-15T00:30:10;22.40;65.10
16441;DHT22;8330;-33.858;151.184;2022-12-15T00:32:57;22.60;65.20
16441;DHT22;8330;-33.858;151.184;2022-12-15T00:35:43;22.80;66.00
16441;DHT22;8330;-33.858;151.184;2022-12-15T00:38:30;23.00;64.20
16441;DHT22;8330;-33.858;151.184;2022-12-15T00:41:19;23.10;61.40
16441;DHT22;8330;-33.858;151.184;2022-12-15T00:43:50;23.20;62.40
16441;DHT22;8330;-33.858;151.184;2022-12-15T00:46:21;23.20;62.50
16441;DHT22;8330;-33.858;151.184;2022-12-15T00:49:08;23.30;61.80
16441;DHT22;8330;-33.858;151.184;2022-12-15T00:51:59;23.10;61.50
16441;DHT22;8330;-33.858;151.184;2022-12-15T00:54:49;23.10;64.00
16441;DHT22;8330;-33.858;151.184;2022-12-15T00:57:37;23.10;64.60
16441;DHT22;8330;-33.858;151.184;2022-12-15T01:00:28;23.00;63.90
16441;DHT22;8330;-33.858;151.184;2022-12-15T01:03:15;23.10;65.90
16441;DHT22;8330;-33.858;151.184;2022-12-15T01:06:05;23.30;65.00
16441;DHT22;8330;-33.858;151.184;2022-12-15T01:08:52;23.20;64.80
16441;DHT22;8330;-33.858;151.184;2022-12-15T01:11:39;23.50;64.60
16441;DHT22;8330;-33.858;151.184;2022-12-15T01:14:29;23.80;63.90
16441;DHT22;8330;-33.858;151.184;2022-12-15T01:17:16;23.90;63.30
16441;DHT22;8330;-33.858;151.184;2022-12-15T01:20:04;24.20;62.70
16441;DHT22;8330;-33.858;151.184;2022-12-15T01:22:59;24.40;62.50
16441;DHT22;8330;-33.858;151.184;2022-12-15T01:25:30;24.50;61.10
16441;DHT22;8330;-33.858;151.184;2022-12-15T01:28:01;24.50;60.50
16441;DHT22;8330;-33.858;151.184;2022-12-15T01:30:34;24.60;61.40
16441;DHT22;8330;-33.858;151.184;2022-12-15T01:33:04;24.80;60.30
16441;DHT22;8330;-33.858;151.184;2022-12-15T01:35:36;24.80;61.40
16441;DHT22;8330;-33.858;151.184;2022-12-15T01:38:09;24.90;59.80
16441;DHT22;8330;-33.858;151.184;2022-12-15T01:40:51;24.90;59.60
16441;DHT22;8330;-33.858;151.184;2022-12-15T01:43:23;25.00;59.80
16441;DHT22;8330;-33.858;151.184;2022-12-15T01:46:03;25.00;59.00
16441;DHT22;8330;-33.858;151.184;2022-12-15T01:48:38;24.90;59.80
16441;DHT22;8330;-33.858;151.184;2022-12-15T01:51:16;24.90;59.90
16441;DHT22;8330;-33.858;151.184;2022-12-15T01:53:53;24.90;60.50
16441;DHT22;8330;-33.858;151.184;2022-12-15T01:56:26;24.80;60.50
16441;DHT22;8330;-33.858;151.184;2022-12-15T01:59:01;24.80;61.50
16441;DHT22;8330;-33.858;151.184;2022-12-15T02:01:35;24.90;61.80
16441;DHT22;8330;-33.858;151.184;2022-12-15T02:04:05;25.00;61.10
16441;DHT22;8330;-33.858;151.184;2022-12-15T02:06:37;25.00;60.00
16441;DHT22;8330;-33.858;151.184;2022-12-15T02:09:08;25.00;59.60
16441;DHT22;8330;-33.858;151.184;2022-12-15T02:11:48;25.00;59.40
16441;DHT22;8330;-33.858;151.184;2022-12-15T02:14:39;25.00;59.50
16441;DHT22;8330;-33.858;151.184;2022-12-15T02:17:26;25.10;60.10
16441;DHT22;8330;-33.858;151.184;2022-12-15T02:20:20;25.00;60.90
16441;DHT22;8330;-33.858;151.184;2022-12-15T02:26:10;25.20;60.80
16441;DHT22;8330;-33.858;151.184;2022-12-15T02:28:53;25.10;61.80
16441;DHT22;8330;-33.858;151.184;2022-12-15T02:31:32;24.90;62.60
16441;DHT22;8330;-33.858;151.184;2022-12-15T02:34:24;24.90;61.90
16441;DHT22;8330;-33.858;151.184;2022-12-15T02:36:58;24.80;62.80
16441;DHT22;8330;-33.858;151.184;2022-12-15T02:39:30;24.90;63.60
16441;DHT22;8330;-33.858;151.184;2022-12-15T02:42:01;25.00;63.50
16441;DHT22;8330;-33.858;151.184;2022-12-15T02:44:34;25.20;64.40
16441;DHT22;8330;-33.858;151.184;2022-12-15T02:47:19;25.20;65.00
16441;DHT22;8330;-33.858;151.184;2022-12-15T02:50:07;25.20;64.10
16441;DHT22;8330;-33.858;151.184;2022-12-15T02:52:50;25.20;63.00
16441;DHT22;8330;-33.858;151.184;2022-12-15T02:55:32;25.40;63.30
16441;DHT22;8330;-33.858;151.184;2022-12-15T02:58:07;25.70;65.00
16441;DHT22;8330;-33.858;151.184;2022-12-15T03:00:43;25.60;62.70
16441;DHT22;8330;-33.858;151.184;2022-12-15T03:03:18;25.80;61.90
16441;DHT22;8330;-33.858;151.184;2022-12-15T03:05:51;25.80;63.00
16441;DHT22;8330;-33.858;151.184;2022-12-15T03:08:22;25.80;64.40
16441;DHT22;8330;-33.858;151.184;2022-12-15T03:10:53;25.70;64.50
16441;DHT22;8330;-33.858;151.184;2022-12-15T03:13:25;25.60;64.00
16441;DHT22;8330;-33.858;151.184;2022-12-15T03:15:56;25.50;63.20
16441;DHT22;8330;-33.858;151.184;2022-12-15T03:18:30;25.70;63.70
16441;DHT22;8330;-33.858;151.184;2022-12-15T03:21:01;25.70;62.30
16441;DHT22;8330;-33.858;151.184;2022-12-15T03:23:31;25.80;63.20
16441;DHT22;8330;-33.858;151.184;2022-12-15T03:26:02;25.70;61.80
16441;DHT22;8330;-33.858;151.184;2022-12-15T03:28:33;25.80;63.20
16441;DHT22;8330;-33.858;151.184;2022-12-15T03:31:04;25.90;62.70
16441;DHT22;8330;-33.858;151.184;2022-12-15T03:33:37;26.10;64.10
16441;DHT22;8330;-33.858;151.184;2022-12-15T03:36:09;26.20;64.80
16441;DHT22;8330;-33.858;151.184;2022-12-15T03:38:39;26.40;64.60
16441;DHT22;8330;-33.858;151.184;2022-12-15T03:41:10;26.40;61.80
16441;DHT22;8330;-33.858;151.184;2022-12-15T03:43:41;26.40;62.40
16441;DHT22;8330;-33.858;151.184;2022-12-15T03:46:13;26.40;61.70
16441;DHT22;8330;-33.858;151.184;2022-12-15T03:48:45;26.30;59.30
16441;DHT22;8330;-33.858;151.184;2022-12-15T03:51:19;26.40;63.20
16441;DHT22;8330;-33.858;151.184;2022-12-15T03:53:50;26.30;61.70
16441;DHT22;8330;-33.858;151.184;2022-12-15T03:56:20;26.20;60.20
16441;DHT22;8330;-33.858;151.184;2022-12-15T03:58:52;26.20;63.10
16441;DHT22;8330;-33.858;151.184;2022-12-15T04:01:28;26.20;62.20
16441;DHT22;8330;-33.858;151.184;2022-12-15T04:04:04;26.30;62.30
16441;DHT22;8330;-33.858;151.184;2022-12-15T04:06:35;26.30;62.20
16441;DHT22;8330;-33.858;151.184;2022-12-15T04:09:06;26.30;62.50
16441;DHT22;8330;-33.858;151.184;2022-12-15T04:11:37;26.50;60.70
16441;DHT22;8330;-33.858;151.184;2022-12-15T04:14:09;26.40;61.30
16441;DHT22;8330;-33.858;151.184;2022-12-15T04:16:39;26.70;61.60
16441;DHT22;8330;-33.858;151.184;2022-12-15T04:19:12;26.80;60.10
16441;DHT22;8330;-33.858;151.184;2022-12-15T04:21:59;26.80;60.00
16441;DHT22;8330;-33.858;151.184;2022-12-15T04:24:32;26.90;61.40
16441;DHT22;8330;-33.858;151.184;2022-12-15T04:27:19;27.00;61.80
16441;DHT22;8330;-33.858;151.184;2022-12-15T04:30:06;27.10;60.80
16441;DHT22;8330;-33.858;151.184;2022-12-15T04:32:54;27.10;59.80
16441;DHT22;8330;-33.858;151.184;2022-12-15T04:35:42;26.90;64.60
16441;DHT22;8330;-33.858;151.184;2022-12-15T04:38:29;27.00;64.30
16441;DHT22;8330;-33.858;151.184;2022-12-15T04:41:16;27.10;64.40
16441;DHT22;8330;-33.858;151.184;2022-12-15T04:44:05;26.90;63.50
16441;DHT22;8330;-33.858;151.184;2022-12-15T04:46:52;26.60;62.90
16441;DHT22;8330;-33.858;151.184;2022-12-15T04:49:38;26.50;66.70
16441;DHT22;8330;-33.858;151.184;2022-12-15T04:52:27;26.70;65.30
16441;DHT22;8330;-33.858;151.184;2022-12-15T04:55:14;26.50;67.50
16441;DHT22;8330;-33.858;151.184;2022-12-15T04:58:05;26.70;65.80
16441;DHT22;8330;-33.858;151.184;2022-12-15T05:00:52;26.80;65.90
16441;DHT22;8330;-33.858;151.184;2022-12-15T05:03:39;26.80;66.30
16441;DHT22;8330;-33.858;151.184;2022-12-15T05:06:26;27.10;64.10
16441;DHT22;8330;-33.858;151.184;2022-12-15T05:09:14;27.10;62.00
16441;DHT22;8330;-33.858;151.184;2022-12-15T05:12:01;26.40;64.20
16441;DHT22;8330;-33.858;151.184;2022-12-15T05:14:47;25.90;65.70
16441;DHT22;8330;-33.858;151.184;2022-12-15T05:17:34;26.20;67.10
16441;DHT22;8330;-33.858;151.184;2022-12-15T05:20:20;26.10;65.70
16441;DHT22;8330;-33.858;151.184;2022-12-15T05:23:07;25.80;67.00
16441;DHT22;8330;-33.858;151.184;2022-12-15T05:25:57;25.50;66.20
16441;DHT22;8330;-33.858;151.184;2022-12-15T05:28:43;25.50;65.30
16441;DHT22;8330;-33.858;151.184;2022-12-15T05:31:30;25.80;66.40
16441;DHT22;8330;-33.858;151.184;2022-12-15T05:34:23;26.30;66.40
16441;DHT22;8330;-33.858;151.184;2022-12-15T05:36:54;26.90;65.90
16441;DHT22;8330;-33.858;151.184;2022-12-15T05:39:26;27.50;64.30
16441;DHT22;8330;-33.858;151.184;2022-12-15T05:41:58;28.00;63.10
16441;DHT22;8330;-33.858;151.184;2022-12-15T05:44:30;28.20;62.10
16441;DHT22;8330;-33.858;151.184;2022-12-15T05:47:01;28.30;62.60
16441;DHT22;8330;-33.858;151.184;2022-12-15T05:49:32;28.70;61.60
16441;DHT22;8330;-33.858;151.184;2022-12-15T05:52:03;28.60;62.50
16441;DHT22;8330;-33.858;151.184;2022-12-15T05:54:33;28.80;61.10
16441;DHT22;8330;-33.858;151.184;2022-12-15T05:57:06;28.90;59.90
16441;DHT22;8330;-33.858;151.184;2022-12-15T05:59:37;28.70;60.80
16441;DHT22;8330;-33.858;151.184;2022-12-15T06:02:08;28.80;59.10
16441;DHT22;8330;-33.858;151.184;2022-12-15T06:04:38;29.00;59.50
16441;DHT22;8330;-33.858;151.184;2022-12-15T06:07:09;28.90;58.70
16441;DHT22;8330;-33.858;151.184;2022-12-15T06:09:40;28.20;59.40
16441;DHT22;8330;-33.858;151.184;2022-12-15T06:12:14;27.40;61.10
16441;DHT22;8330;-33.858;151.184;2022-12-15T06:14:45;27.40;60.80
16441;DHT22;8330;-33.858;151.184;2022-12-15T06:17:16;26.70;62.90
16441;DHT22;8330;-33.858;151.184;2022-12-15T06:19:47;26.20;63.60
16441;DHT22;8330;-33.858;151.184;2022-12-15T06:22:18;25.60;64.30
16441;DHT22;8330;-33.858;151.184;2022-12-15T06:24:52;25.10;66.10
16441;DHT22;8330;-33.858;151.184;2022-12-15T06:27:24;24.70;69.20
16441;DHT22;8330;-33.858;151.184;2022-12-15T06:29:56;24.50;70.90
16441;DHT22;8330;-33.858;151.184;2022-12-15T06:32:26;24.20;72.80
16441;DHT22;8330;-33.858;151.184;2022-12-15T06:34:57;23.90;72.40
16441;DHT22;8330;-33.858;151.184;2022-12-15T06:37:28;23.70;71.60
16441;DHT22;8330;-33.858;151.184;2022-12-15T06:39:59;24.20;72.20
16441;DHT22;8330;-33.858;151.184;2022-12-15T06:42:32;24.70;71.60
16441;DHT22;8330;-33.858;151.184;2022-12-15T06:45:04;25.60;68.80
16441;DHT22;8330;-33.858;151.184;2022-12-15T06:47:35;26.30;67.00
16441;DHT22;8330;-33.858;151.184;2022-12-15T06:50:07;26.90;66.70
16441;DHT22;8330;-33.858;151.184;2022-12-15T06:52:39;27.70;63.20
16441;DHT22;8330;-33.858;151.184;2022-12-15T06:55:10;28.00;62.00
16441;DHT22;8330;-33.858;151.184;2022-12-15T06:57:45;28.20;59.70
16441;DHT22;8330;-33.858;151.184;2022-12-15T07:00:16;28.40;59.50
16441;DHT22;8330;-33.858;151.184;2022-12-15T07:02:47;28.20;59.60
16441;DHT22;8330;-33.858;151.184;2022-12-15T07:05:19;28.40;60.70
16441;DHT22;8330;-33.858;151.184;2022-12-15T07:07:52;28.50;60.70
16441;DHT22;8330;-33.858;151.184;2022-12-15T07:10:23;28.70;61.10
16441;DHT22;8330;-33.858;151.184;2022-12-15T07:12:58;28.90;61.80
16441;DHT22;8330;-33.858;151.184;2022-12-15T07:15:29;28.90;61.20
16441;DHT22;8330;-33.858;151.184;2022-12-15T07:18:00;28.50;61.20
16441;DHT22;8330;-33.858;151.184;2022-12-15T07:20:31;28.20;62.60
16441;DHT22;8330;-33.858;151.184;2022-12-15T07:23:02;28.30;62.50
16441;DHT22;8330;-33.858;151.184;2022-12-15T07:25:36;28.20;63.00
16441;DHT22;8330;-33.858;151.184;2022-12-15T07:28:10;28.50;63.30
16441;DHT22;8330;-33.858;151.184;2022-12-15T07:30:40;28.40;63.40
16441;DHT22;8330;-33.858;151.184;2022-12-15T07:33:12;28.40;62.80
16441;DHT22;8330;-33.858;151.184;2022-12-15T07:35:43;28.20;62.40
16441;DHT22;8330;-33.858;151.184;2022-12-15T07:38:21;28.30;62.30
16441;DHT22;8330;-33.858;151.184;2022-12-15T07:40:52;28.20;62.10
16441;DHT22;8330;-33.858;151.184;2022-12-15T07:43:25;28.30;61.50
16441;DHT22;8330;-33.858;151.184;2022-12-15T07:45:56;28.20;61.90
16441;DHT22;8330;-33.858;151.184;2022-12-15T07:48:26;28.10;60.70
16441;DHT22;8330;-33.858;151.184;2022-12-15T07:51:04;27.70;61.80
16441;DHT22;8330;-33.858;151.184;2022-12-15T07:53:36;27.30;63.00
16441;DHT22;8330;-33.858;151.184;2022-12-15T07:56:08;26.80;64.90
16441;DHT22;8330;-33.858;151.184;2022-12-15T07:58:42;26.10;66.80
16441;DHT22;8330;-33.858;151.184;2022-12-15T08:01:13;25.90;68.00
16441;DHT22;8330;-33.858;151.184;2022-12-15T08:03:44;25.60;69.10
16441;DHT22;8330;-33.858;151.184;2022-12-15T08:06:16;24.90;71.00
16441;DHT22;8330;-33.858;151.184;2022-12-15T08:08:48;24.40;74.40
16441;DHT22;8330;-33.858;151.184;2022-12-15T08:11:21;23.90;76.50
16441;DHT22;8330;-33.858;151.184;2022-12-15T08:13:54;23.50;79.10
16441;DHT22;8330;-33.858;151.184;2022-12-15T08:16:25;23.10;83.10
16441;DHT22;8330;-33.858;151.184;2022-12-15T08:18:56;22.80;85.10
16441;DHT22;8330;-33.858;151.184;2022-12-15T08:21:28;22.70;87.70
16441;DHT22;8330;-33.858;151.184;2022-12-15T08:24:00;22.60;90.10
16441;DHT22;8330;-33.858;151.184;2022-12-15T08:26:31;22.50;91.50
16441;DHT22;8330;-33.858;151.184;2022-12-15T08:29:05;22.30;91.90
16441;DHT22;8330;-33.858;151.184;2022-12-15T08:31:36;22.10;91.90
16441;DHT22;8330;-33.858;151.184;2022-12-15T08:34:08;22.00;92.80
16441;DHT22;8330;-33.858;151.184;2022-12-15T08:36:39;21.90;94.00
16441;DHT22;8330;-33.858;151.184;2022-12-15T08:39:10;21.60;94.50
16441;DHT22;8330;-33.858;151.184;2022-12-15T08:41:41;21.60;95.20
16441;DHT22;8330;-33.858;151.184;2022-12-15T08:44:13;21.50;95.90
16441;DHT22;8330;-33.858;151.184;2022-12-15T08:46:44;21.40;97.00
16441;DHT22;8330;-33.858;151.184;2022-12-15T08:49:15;21.40;98.00
16441;DHT22;8330;-33.858;151.184;2022-12-15T08:51:47;21.40;98.70
16441;DHT22;8330;-33.858;151.184;2022-12-15T08:54:18;21.10;99.30
16441;DHT22;8330;-33.858;151.184;2022-12-15T08:56:51;21.20;99.40
16441;DHT22;8330;-33.858;151.184;2022-12-15T08:59:23;21.10;99.80
16441;DHT22;8330;-33.858;151.184;2022-12-15T09:01:54;21.10;99.90
16441;DHT22;8330;-33.858;151.184;2022-12-15T09:04:25;21.00;99.90
16441;DHT22;8330;-33.858;151.184;2022-12-15T09:06:56;20.90;99.90
16441;DHT22;8330;-33.858;151.184;2022-12-15T09:09:27;20.90;99.90
16441;DHT22;8330;-33.858;151.184;2022-12-15T09:11:58;20.90;99.90
16441;DHT22;8330;-33.858;151.184;2022-12-15T09:14:32;20.80;99.90
16441;DHT22;8330;-33.858;151.184;2022-12-15T09:17:03;20.90;99.90
16441;DHT22;8330;-33.858;151.184;2022-12-15T09:19:34;20.90;99.90
16441;DHT22;8330;-33.858;151.184;2022-12-15T09:22:05;20.90;99.90
16441;DHT22;8330;-33.858;151.184;2022-12-15T09:24:37;20.80;99.90
16441;DHT22;8330;-33.858;151.184;2022-12-15T09:27:09;20.80;99.90
16441;DHT22;8330;-33.858;151.184;2022-12-15T09:29:44;20.70;99.90
16441;DHT22;8330;-33.858;151.184;2022-12-15T09:32:15;20.60;99.90
16441;DHT22;8330;-33.858;151.184;2022-12-15T09:34:46;20.60;99.90
16441;DHT22;8330;-33.858;151.184;2022-12-15T09:37:23;20.60;99.90
16441;DHT22;8330;-33.858;151.184;2022-12-15T09:39:54;20.50;99.90
16441;DHT22;8330;-33.858;151.184;2022-12-15T09:42:27;20.40;99.90
16441;DHT22;8330;-33.858;151.184;2022-12-15T09:45:06;20.40;99.90
16441;DHT22;8330;-33.858;151.184;2022-12-15T09:47:43;20.40;99.90
16441;DHT22;8330;-33.858;151.184;2022-12-15T09:50:17;20.30;99.90
16441;DHT22;8330;-33.858;151.184;2022-12-15T09:52:51;20.30;99.90
16441;DHT22;8330;-33.858;151.184;2022-12-15T09:55:26;20.30;99.90
16441;DHT22;8330;-33.858;151.184;2022-12-15T09:58:01;20.10;99.90
16441;DHT22;8330;-33.858;151.184;2022-12-15T10:00:39;20.00;99.90
16441;DHT22;8330;-33.858;151.184;2022-12-15T10:03:40;19.90;99.90
16441;DHT22;8330;-33.858;151.184;2022-12-15T10:06:15;20.00;99.90
16441;DHT22;8330;-33.858;151.184;2022-12-15T10:08:53;20.00;99.90
16441;DHT22;8330;-33.858;151.184;2022-12-15T10:11:46;20.00;99.90
16441;DHT22;8330;-33.858;151.184;2022-12-15T10:14:26;20.00;99.90
16441;DHT22;8330;-33.858;151.184;2022-12-15T10:17:20;20.00;99.90
16441;DHT22;8330;-33.858;151.184;2022-12-15T10:20:00;20.10;99.90
16441;DHT22;8330;-33.858;151.184;2022-12-15T10:22:33;20.10;99.90
16441;DHT22;8330;-33.858;151.184;2022-12-15T10:25:20;20.00;99.90
16441;DHT22;8330;-33.858;151.184;2022-12-15T10:28:05;19.90;99.90
16441;DHT22;8330;-33.858;151.184;2022-12-15T10:30:42;19.90;99.90
16441;DHT22;8330;-33.858;151.184;2022-12-15T10:33:18;19.70;99.90
16441;DHT22;8330;-33.858;151.184;2022-12-15T10:36:06;19.60;99.90
16441;DHT22;8330;-33.858;151.184;2022-12-15T10:38:39;19.60;99.90
16441;DHT22;8330;-33.858;151.184;2022-12-15T10:41:13;19.70;99.90
16441;DHT22;8330;-33.858;151.184;2022-12-15T10:43:45;19.70;99.90
16441;DHT22;8330;-33.858;151.184;2022-12-15T10:46:18;19.70;99.90
16441;DHT22;8330;-33.858;151.184;2022-12-15T10:48:55;19.70;99.90
16441;DHT22;8330;-33.858;151.184;2022-12-15T10:51:27;19.70;99.90
16441;DHT22;8330;-33.858;151.184;2022-12-15T10:54:09;19.60;99.90
16441;DHT22;8330;-33.858;151.184;2022-12-15T10:56:48;19.60;99.90
16441;DHT22;8330;-33.858;151.184;2022-12-15T10:59:28;19.60;99.90
16441;DHT22;8330;-33.858;151.184;2022-12-15T11:02:24;19.60;99.90
16441;DHT22;8330;-33.858;151.184;2022-12-15T11:05:02;19.60;99.90
16441;DHT22;8330;-33.858;151.184;2022-12-15T11:07:37;19.50;99.90
16441;DHT22;8330;-33.858;151.184;2022-12-15T11:10:21;19.50;99.90
16441;DHT22;8330;-33.858;151.184;2022-12-15T11:12:59;19.40;99.90
16441;DHT22;8330;-33.858;151.184;2022-12-15T11:15:39;19.40;99.90
16441;DHT22;8330;-33.858;151.184;2022-12-15T11:18:18;19.40;99.90
16441;DHT22;8330;-33.858;151.184;2022-12-15T11:20:57;19.30;99.90
16441;DHT22;8330;-33.858;151.184;2022-12-15T11:23:56;19.30;99.90
16441;DHT22;8330;-33.858;151.184;2022-12-15T11:26:47;19.40;99.90
16441;DHT22;8330;-33.858;151.184;2022-12-15T11:29:26;19.30;99.90
16441;DHT22;8330;-33.858;151.184;2022-12-15T11:32:01;19.40;99.90
16441;DHT22;8330;-33.858;151.184;2022-12-15T11:34:35;19.40;99.90
16441;DHT22;8330;-33.858;151.184;2022-12-15T11:37:29;19.40;99.90
16441;DHT22;8330;-33.858;151.184;2022-12-15T11:43:24;19.30;99.90
16441;DHT22;8330;-33.858;151.184;2022-12-15T11:46:14;19.20;99.90
16441;DHT22;8330;-33.858;151.184;2022-12-15T11:49:13;19.30;99.90
16441;DHT22;8330;-33.858;151.184;2022-12-15T11:51:52;19.30;99.90
16441;DHT22;8330;-33.858;151.184;2022-12-15T11:54:28;19.30;99.90
16441;DHT22;8330;-33.858;151.184;2022-12-15T11:57:11;19.20;99.90
16441;DHT22;8330;-33.858;151.184;2022-12-15T11:59:59;19.20;99.90
16441;DHT22;8330;-33.858;151.184;2022-12-15T12:02:48;19.20;99.90
16441;DHT22;8330;-33.858;151.184;2022-12-15T12:05:34;19.20;99.90
16441;DHT22;8330;-33.858;151.184;2022-12-15T12:08:21;19.20;99.90
16441;DHT22;8330;-33.858;151.184;2022-12-15T12:11:01;19.20;99.90
16441;DHT22;8330;-33.858;151.184;2022-12-15T12:13:41;19.30;99.90
16441;DHT22;8330;-33.858;151.184;2022-12-15T12:16:27;19.20;99.90
16441;DHT22;8330;-33.858;151.184;2022-12-15T12:19:03;19.20;99.90
16441;DHT22;8330;-33.858;151.184;2022-12-15T12:21:37;19.10;99.90
16441;DHT22;8330;-33.858;151.184;2022-12-15T12:24:13;19.00;99.90
16441;DHT22;8330;-33.858;151.184;2022-12-15T12:26:48;18.90;99.90
16441;DHT22;8330;-33.858;151.184;2022-12-15T12:29:23;18.90;99.90
16441;DHT22;8330;-33.858;151.184;2022-12-15T12:32:02;18.80;99.90
16441;DHT22;8330;-33.858;151.184;2022-12-15T12:34:41;18.80;99.90
16441;DHT22;8330;-33.858;151.184;2022-12-15T12:37:22;18.70;99.90
16441;DHT22;8330;-33.858;151.184;2022-12-15T12:39:59;18.70;99.90
16441;DHT22;8330;-33.858;151.184;2022-12-15T12:42:36;18.50;99.90
16441;DHT22;8330;-33.858;151.184;2022-12-15T12:45:12;18.50;99.90
16441;DHT22;8330;-33.858;151.184;2022-12-15T12:47:47;18.40;99.90
16441;DHT22;8330;-33.858;151.184;2022-12-15T12:50:21;18.40;99.90
16441;DHT22;8330;-33.858;151.184;2022-12-15T12:52:55;18.30;99.90
16441;DHT22;8330;-33.858;151.184;2022-12-15T12:55:36;18.30;99.90
16441;DHT22;8330;-33.858;151.184;2022-12-15T12:58:36;18.40;99.90
16441;DHT22;8330;-33.858;151.184;2022-12-15T13:01:18;18.30;99.90
16441;DHT22;8330;-33.858;151.184;2022-12-15T13:04:07;18.30;99.90
16441;DHT22;8330;-33.858;151.184;2022-12-15T13:07:00;18.20;99.90
16441;DHT22;8330;-33.858;151.184;2022-12-15T13:09:40;18.00;99.90
16441;DHT22;8330;-33.858;151.184;2022-12-15T13:12:37;17.80;99.90
16441;DHT22;8330;-33.858;151.184;2022-12-15T13:15:28;17.50;99.90
16441;DHT22;8330;-33.858;151.184;2022-12-15T13:18:05;17.50;99.90
16441;DHT22;8330;-33.858;151.184;2022-12-15T13:20:37;17.40;99.90
16441;DHT22;8330;-33.858;151.184;2022-12-15T13:23:39;17.40;99.90
16441;DHT22;8330;-33.858;151.184;2022-12-15T13:26:14;17.40;99.90
16441;DHT22;8330;-33.858;151.184;2022-12-15T13:28:53;17.40;99.90
16441;DHT22;8330;-33.858;151.184;2022-12-15T13:31:37;17.50;99.90
16441;DHT22;8330;-33.858;151.184;2022-12-15T13:34:21;17.50;99.90
16441;DHT22;8330;-33.858;151.184;2022-12-15T13:36:56;17.50;99.90
16441;DHT22;8330;-33.858;151.184;2022-12-15T13:39:53;17.60;99.90
16441;DHT22;8330;-33.858;151.184;2022-12-15T13:42:29;17.60;99.90
16441;DHT22;8330;-33.858;151.184;2022-12-15T13:45:21;17.60;99.90
16441;DHT22;8330;-33.858;151.184;2022-12-15T13:48:01;17.50;99.90
16441;DHT22;8330;-33.858;151.184;2022-12-15T13:50:44;17.50;99.90
16441;DHT22;8330;-33.858;151.184;2022-12-15T13:53:20;17.40;99.90
16441;DHT22;8330;-33.858;151.184;2022-12-15T13:56:04;17.40;99.90
16441;DHT22;8330;-33.858;151.184;2022-12-15T13:58:42;17.30;99.90
16441;DHT22;8330;-33.858;151.184;2022-12-15T14:01:25;17.10;99.90
16441;DHT22;8330;-33.858;151.184;2022-12-15T14:04:05;17.10;99.90
16441;DHT22;8330;-33.858;151.184;2022-12-15T14:06:39;17.20;99.90
16441;DHT22;8330;-33.858;151.184;2022-12-15T14:09:14;17.20;99.90
16441;DHT22;8330;-33.858;151.184;2022-12-15T14:11:46;17.30;99.90
16441;DHT22;8330;-33.858;151.184;2022-12-15T14:14:23;17.30;99.90
16441;DHT22;8330;-33.858;151.184;2022-12-15T14:16:59;17.30;99.90
16441;DHT22;8330;-33.858;151.184;2022-12-15T14:19:42;17.40;99.90
16441;DHT22;8330;-33.858;151.184;2022-12-15T14:22:21;17.50;99.90
16441;DHT22;8330;-33.858;151.184;2022-12-15T14:24:57;17.40;99.90
16441;DHT22;8330;-33.858;151.184;2022-12-15T14:27:29;17.30;99.90
16441;DHT22;8330;-33.858;151.184;2022-12-15T14:30:14;17.30;99.90
16441;DHT22;8330;-33.858;151.184;2022-12-15T14:32:51;17.20;99.90
16441;DHT22;8330;-33.858;151.184;2022-12-15T14:35:30;17.20;99.90
16441;DHT22;8330;-33.858;151.184;2022-12-15T14:38:04;17.30;99.90
16441;DHT22;8330;-33.858;151.184;2022-12-15T14:40:36;17.20;99.90
16441;DHT22;8330;-33.858;151.184;2022-12-15T14:43:14;17.10;99.90
16441;DHT22;8330;-33.858;151.184;2022-12-15T14:45:47;17.10;99.90
16441;DHT22;8330;-33.858;151.184;2022-12-15T14:48:25;17.10;99.90
16441;DHT22;8330;-33.858;151.184;2022-12-15T14:51:02;17.20;99.90
16441;DHT22;8330;-33.858;151.184;2022-12-15T14:53:34;17.20;99.90
16441;DHT22;8330;-33.858;151.184;2022-12-15T14:56:26;17.20;99.90
16441;DHT22;8330;-33.858;151.184;2022-12-15T14:59:02;17.20;99.90
16441;DHT22;8330;-33.858;151.184;2022-12-15T15:01:36;17.10;99.90
16441;DHT22;8330;-33.858;151.184;2022-12-15T15:04:22;17.10;99.90
16441;DHT22;8330;-33.858;151.184;2022-12-15T15:06:58;17.10;99.90
16441;DHT22;8330;-33.858;151.184;2022-12-15T15:09:31;17.20;99.90
16441;DHT22;8330;-33.858;151.184;2022-12-15T15:12:03;17.10;99.90
16441;DHT22;8330;-33.858;151.184;2022-12-15T15:14:39;17.10;99.90
16441;DHT22;8330;-33.858;151.184;2022-12-15T15:17:26;16.90;99.90
16441;DHT22;8330;-33.858;151.184;2022-12-15T15:20:01;16.90;99.90
16441;DHT22;8330;-33.858;151.184;2022-12-15T15:22:37;17.00;99.90
16441;DHT22;8330;-33.858;151.184;2022-12-15T15:25:28;16.80;99.90
16441;DHT22;8330;-33.858;151.184;2022-12-15T15:28:13;16.90;99.90
16441;DHT22;8330;-33.858;151.184;2022-12-15T15:30:45;16.70;99.90
16441;DHT22;8330;-33.858;151.184;2022-12-15T15:33:18;16.70;99.90
16441;DHT22;8330;-33.858;151.184;2022-12-15T15:35:52;16.80;99.90
16441;DHT22;8330;-33.858;151.184;2022-12-15T15:38:27;16.80;99.90
16441;DHT22;8330;-33.858;151.184;2022-12-15T15:41:14;16.70;99.90
16441;DHT22;8330;-33.858;151.184;2022-12-15T15:43:48;16.70;99.90
16441;DHT22;8330;-33.858;151.184;2022-12-15T15:46:22;16.70;99.90
16441;DHT22;8330;-33.858;151.184;2022-12-15T15:48:56;16.70;99.90
16441;DHT22;8330;-33.858;151.184;2022-12-15T15:51:29;16.70;99.90
16441;DHT22;8330;-33.858;151.184;2022-12-15T15:54:06;16.70;99.90
16441;DHT22;8330;-33.858;151.184;2022-12-15T15:56:38;16.70;99.90
16441;DHT22;8330;-33.858;151.184;2022-12-15T15:59:11;16.80;99.90
16441;DHT22;8330;-33.858;151.184;2022-12-15T16:01:43;16.80;99.90
16441;DHT22;8330;-33.858;151.184;2022-12-15T16:04:14;16.90;99.90
16441;DHT22;8330;-33.858;151.184;2022-12-15T16:06:48;17.00;99.90
16441;DHT22;8330;-33.858;151.184;2022-12-15T16:09:21;16.80;99.90
16441;DHT22;8330;-33.858;151.184;2022-12-15T16:11:57;16.80;99.90
16441;DHT22;8330;-33.858;151.184;2022-12-15T16:14:31;16.70;99.90